Dilbeek, Belgium
Current Conditions -  °F | °C
As of 10:50 PM on Wednesday 28 Jan 2015 (Local Time) from EBBR Reporting Station
Scattered Clouds Scattered Clouds  
Wind Chill: 29°   Ceiling: Unl
Heat Index: 37°   Visibility: 6mi
Dew Point: 28°   Wind: 14mph
Humidity: 70%   Direction: 250°WSW
Pressure: 29.53"   Gusts: NA
Location:  50.85°N, 4.26°E
Report Text: EBBR 282150Z 25012KT 9999 SCT030 03/M02 Q1000 NOSIG
Loading
Personal Weather Stations






























Interactive Weather Map New forecast layout! Learn more

10-Day Weather Forecast

Advertisements
Track Severe Weather on mobile